Time;durP1;ratioP1;P1;durP2;ratioP2;P2;SDS_P1;SDS_P2;PMS_P1;PMS_P2;Temp;Humidity;BMP_temperature;BMP_pressure;BME280_temperature;BME280_humidity;BME280_pressure;Samples;Min_cycle;Max_cycle;Signal;HPM_P1;HPM_P2
2024/02/06 00:02:57;;;;;;;128.50;83.18;;;;;;;;;;6265985;28;25626;-74
2024/02/06 00:05:58;;;;;;;129.90;84.77;;;;;;;;;;6267010;28;24720;-74
2024/02/06 00:09:00;;;;;;;129.07;83.97;;;;;;;;;;6268061;28;24451;-74
2024/02/06 00:12:03;;;;;;;129.10;84.13;;;;;;;;;;6249187;28;24431;-73
2024/02/06 00:15:05;;;;;;;128.68;85.00;;;;;;;;;;6260835;28;24439;-75
2024/02/06 00:18:07;;;;;;;132.57;86.53;;;;;;;;;;6266378;28;24828;-74
2024/02/06 00:21:09;;;;;;;133.27;86.13;;;;;;;;;;6265117;28;24430;-75
2024/02/06 00:24:10;;;;;;;128.93;85.78;;;;;;;;;;6265543;28;24430;-73
2024/02/06 00:27:16;;;;;;;136.45;88.53;;;;;;;;;;6265411;28;24433;-74
2024/02/06 00:30:18;;;;;;;130.25;85.93;;;;;;;;;;6271592;28;24477;-74
2024/02/06 00:33:19;;;;;;;134.82;87.85;;;;;;;;;;6255503;28;24431;-75
2024/02/06 00:36:21;;;;;;;140.10;89.93;;;;;;;;;;6268610;28;24501;-74
2024/02/06 00:39:22;;;;;;;135.13;88.82;;;;;;;;;;6260526;28;24474;-74
2024/02/06 00:42:26;;;;;;;135.10;88.13;;;;;;;;;;6266482;28;25228;-74
2024/02/06 00:45:28;;;;;;;140.27;88.80;;;;;;;;;;6267264;28;24439;-75
2024/02/06 00:48:29;;;;;;;136.60;89.70;;;;;;;;;;6269345;28;24423;-76
2024/02/06 00:51:31;;;;;;;138.93;90.22;;;;;;;;;;6266386;28;24486;-75
2024/02/06 00:54:32;;;;;;;140.20;89.63;;;;;;;;;;6267539;28;24430;-74
2024/02/06 00:57:35;;;;;;;138.38;89.22;;;;;;;;;;6265627;28;24419;-74
2024/02/06 01:00:37;;;;;;;135.82;86.85;;;;;;;;;;6262697;28;24496;-74
2024/02/06 01:03:38;;;;;;;135.87;88.43;;;;;;;;;;6265178;28;25047;-74
2024/02/06 01:06:40;;;;;;;136.43;88.90;;;;;;;;;;6265669;28;24424;-73
2024/02/06 01:09:41;;;;;;;138.17;88.53;;;;;;;;;;6265290;28;24626;-74
2024/02/06 01:12:44;;;;;;;142.05;89.72;;;;;;;;;;6264495;28;25022;-74
2024/02/06 01:15:46;;;;;;;138.45;89.65;;;;;;;;;;6267266;28;24733;-74
2024/02/06 01:18:49;;;;;;;142.45;89.57;;;;;;;;;;6264192;28;24837;-75
2024/02/06 01:21:51;;;;;;;136.80;87.60;;;;;;;;;;6267636;28;24549;-74
2024/02/06 01:24:52;;;;;;;135.23;87.22;;;;;;;;;;6261334;28;24847;-74
2024/02/06 01:27:55;;;;;;;137.00;86.87;;;;;;;;;;6263838;28;24432;-74
2024/02/06 01:30:57;;;;;;;135.70;86.35;;;;;;;;;;6264353;28;24426;-74
2024/02/06 01:33:59;;;;;;;133.50;84.97;;;;;;;;;;6265579;28;24815;-74
2024/02/06 01:37:00;;;;;;;135.57;86.13;;;;;;;;;;6267946;28;24440;-74
2024/02/06 01:40:02;;;;;;;129.82;82.68;;;;;;;;;;6241036;28;24471;-74
2024/02/06 01:43:06;;;;;;;131.63;84.60;;;;;;;;;;6265555;28;24866;-74
2024/02/06 01:46:08;;;;;;;129.20;81.77;;;;;;;;;;6266185;28;24601;-74
2024/02/06 01:49:10;;;;;;;130.35;81.57;;;;;;;;;;6263557;28;24547;-75
2024/02/06 01:52:13;;;;;;;127.82;80.57;;;;;;;;;;6265587;28;24815;-74
2024/02/06 01:55:15;;;;;;;126.13;80.13;;;;;;;;;;6264702;28;24831;-74
2024/02/06 01:58:18;;;;;;;127.75;80.25;;;;;;;;;;6264811;28;24865;-73
2024/02/06 02:01:20;;;;;;;127.55;80.90;;;;;;;;;;6266173;28;24439;-74
2024/02/06 02:04:22;;;;;;;130.50;79.88;;;;;;;;;;6261870;28;24416;-74
2024/02/06 02:07:25;;;;;;;127.28;80.03;;;;;;;;;;6265679;28;24411;-74
2024/02/06 02:10:27;;;;;;;129.18;81.15;;;;;;;;;;6265158;28;24420;-74
2024/02/06 02:13:33;;;;;;;131.93;82.35;;;;;;;;;;6264653;28;24404;-74
2024/02/06 02:16:34;;;;;;;126.75;81.47;;;;;;;;;;6265532;28;24458;-74
2024/02/06 02:19:36;;;;;;;130.80;81.17;;;;;;;;;;6266196;28;24424;-74
2024/02/06 02:22:39;;;;;;;126.03;79.97;;;;;;;;;;6262280;28;24411;-74
2024/02/06 02:25:40;;;;;;;128.27;80.88;;;;;;;;;;6263252;28;24404;-74
2024/02/06 02:28:44;;;;;;;131.00;82.18;;;;;;;;;;6265496;28;24420;-74
2024/02/06 02:31:46;;;;;;;129.90;81.03;;;;;;;;;;6261360;28;24419;-74
2024/02/06 02:34:48;;;;;;;128.40;81.97;;;;;;;;;;6261593;28;24621;-74
2024/02/06 02:37:51;;;;;;;131.13;79.47;;;;;;;;;;6263144;28;24423;-74
2024/02/06 02:40:53;;;;;;;123.82;79.10;;;;;;;;;;6261476;28;24657;-75
2024/02/06 02:43:55;;;;;;;128.98;81.03;;;;;;;;;;6264932;28;24630;-74
2024/02/06 02:46:56;;;;;;;127.07;80.00;;;;;;;;;;6262380;28;24419;-76
2024/02/06 02:49:58;;;;;;;127.40;80.23;;;;;;;;;;6265595;28;24442;-77
2024/02/06 02:53:01;;;;;;;126.65;78.70;;;;;;;;;;6263374;28;24653;-76
2024/02/06 02:56:03;;;;;;;124.85;80.82;;;;;;;;;;6264270;28;24435;-77
2024/02/06 02:59:04;;;;;;;126.90;80.30;;;;;;;;;;6263778;28;24510;-76
2024/02/06 03:02:06;;;;;;;126.95;80.05;;;;;;;;;;6261064;28;24426;-77
2024/02/06 03:05:09;;;;;;;126.63;79.93;;;;;;;;;;6263060;28;24507;-77
2024/02/06 03:08:12;;;;;;;124.95;81.10;;;;;;;;;;6260654;28;24420;-77
2024/02/06 03:11:14;;;;;;;126.03;79.85;;;;;;;;;;6261575;28;24415;-79
2024/02/06 03:14:15;;;;;;;122.72;78.80;;;;;;;;;;6262466;28;24423;-77
2024/02/06 03:17:17;;;;;;;124.40;78.78;;;;;;;;;;6263645;28;24641;-76
2024/02/06 03:20:19;;;;;;;125.25;79.88;;;;;;;;;;6261868;28;24490;-77
2024/02/06 03:23:24;;;;;;;122.85;78.50;;;;;;;;;;6259537;28;24784;-77
2024/02/06 03:26:26;;;;;;;123.15;77.45;;;;;;;;;;6265118;28;24539;-77
2024/02/06 03:29:28;;;;;;;122.17;78.40;;;;;;;;;;6263332;28;24532;-77
2024/02/06 03:32:31;;;;;;;122.07;78.15;;;;;;;;;;6264267;28;24832;-78
2024/02/06 03:35:32;;;;;;;120.93;76.68;;;;;;;;;;6263212;28;24666;-77
2024/02/06 03:38:35;;;;;;;122.93;77.32;;;;;;;;;;6263077;28;24431;-78
2024/02/06 03:41:37;;;;;;;126.63;78.53;;;;;;;;;;6263282;28;24458;-77
2024/02/06 03:44:38;;;;;;;121.55;74.82;;;;;;;;;;6258899;28;24427;-77
2024/02/06 03:47:42;;;;;;;120.25;75.75;;;;;;;;;;6261478;28;24847;-77
2024/02/06 03:50:43;;;;;;;123.00;76.47;;;;;;;;;;6262503;28;24863;-76
2024/02/06 03:53:47;;;;;;;127.07;78.10;;;;;;;;;;6263627;28;24422;-77
2024/02/06 03:56:48;;;;;;;127.20;78.25;;;;;;;;;;6258129;28;24419;-77
2024/02/06 03:59:50;;;;;;;127.93;78.47;;;;;;;;;;6258864;28;24447;-77
2024/02/06 04:02:52;;;;;;;125.78;78.57;;;;;;;;;;6265770;28;24630;-77
2024/02/06 04:05:54;;;;;;;125.67;77.73;;;;;;;;;;6246486;28;24428;-77
2024/02/06 04:08:57;;;;;;;125.90;78.50;;;;;;;;;;6255324;28;24431;-77
2024/02/06 04:11:58;;;;;;;124.57;77.63;;;;;;;;;;6263608;28;24408;-77
2024/02/06 04:15:00;;;;;;;123.85;76.95;;;;;;;;;;6266601;28;24431;-78
2024/02/06 04:18:04;;;;;;;131.77;81.80;;;;;;;;;;6265950;28;24431;-77
2024/02/06 04:21:08;;;;;;;130.07;80.82;;;;;;;;;;6267286;28;24502;-77
2024/02/06 04:24:11;;;;;;;130.07;80.57;;;;;;;;;;6267833;28;24428;-77
2024/02/06 04:27:13;;;;;;;129.80;80.90;;;;;;;;;;6269176;28;24424;-77
2024/02/06 04:30:16;;;;;;;131.10;81.45;;;;;;;;;;6267550;28;24419;-77
2024/02/06 04:33:18;;;;;;;128.77;80.23;;;;;;;;;;6265632;28;24426;-77
2024/02/06 04:36:20;;;;;;;134.43;81.55;;;;;;;;;;6264345;28;24871;-77
2024/02/06 04:39:24;;;;;;;127.87;79.43;;;;;;;;;;6262963;28;24428;-77
2024/02/06 04:42:25;;;;;;;129.45;80.43;;;;;;;;;;6266584;28;24835;-78
2024/02/06 04:45:27;;;;;;;130.18;80.97;;;;;;;;;;6265703;28;24828;-78
2024/02/06 04:48:28;;;;;;;133.85;82.35;;;;;;;;;;6269896;28;24481;-78
2024/02/06 04:51:30;;;;;;;133.43;82.80;;;;;;;;;;6267582;28;24420;-77
2024/02/06 04:54:33;;;;;;;136.00;84.32;;;;;;;;;;6265786;28;24485;-77
2024/02/06 04:57:35;;;;;;;138.95;84.65;;;;;;;;;;6264431;28;24420;-77
2024/02/06 05:00:37;;;;;;;133.30;82.45;;;;;;;;;;6266171;28;24447;-77
2024/02/06 05:03:39;;;;;;;135.98;85.07;;;;;;;;;;6266835;28;25042;-77
2024/02/06 05:06:41;;;;;;;135.43;83.50;;;;;;;;;;6266984;28;24420;-74
2024/02/06 05:09:44;;;;;;;132.98;81.95;;;;;;;;;;6268035;28;24420;-74
2024/02/06 05:12:47;;;;;;;132.10;81.50;;;;;;;;;;6264041;28;24545;-74
2024/02/06 05:15:49;;;;;;;135.25;81.68;;;;;;;;;;6266805;28;24620;-74
2024/02/06 05:18:50;;;;;;;131.27;81.20;;;;;;;;;;6264945;28;24419;-74
2024/02/06 05:21:52;;;;;;;134.43;82.23;;;;;;;;;;6264810;28;24458;-75
2024/02/06 05:24:55;;;;;;;137.38;84.68;;;;;;;;;;6264092;28;24430;-74
2024/02/06 05:27:58;;;;;;;134.73;83.80;;;;;;;;;;6262816;28;24436;-74
2024/02/06 05:31:00;;;;;;;136.07;83.80;;;;;;;;;;6265147;28;24623;-74
2024/02/06 05:34:01;;;;;;;131.97;82.97;;;;;;;;;;6266816;28;24644;-74
2024/02/06 05:37:03;;;;;;;134.47;83.23;;;;;;;;;;6264204;28;24449;-74
2024/02/06 05:40:12;;;;;;;135.15;82.53;;;;;;;;;;6263411;28;24458;-75
2024/02/06 05:43:13;;;;;;;131.63;83.17;;;;;;;;;;6262216;28;24442;-74
2024/02/06 05:46:15;;;;;;;134.50;83.83;;;;;;;;;;6262096;28;24519;-75
2024/02/06 05:49:16;;;;;;;129.88;81.80;;;;;;;;;;6265373;28;24970;-74
2024/02/06 05:52:18;;;;;;;132.88;84.13;;;;;;;;;;6264974;28;24451;-74
2024/02/06 05:55:20;;;;;;;134.07;83.63;;;;;;;;;;6264897;28;24866;-74
2024/02/06 05:58:24;;;;;;;134.60;84.00;;;;;;;;;;6262222;28;24483;-74
2024/02/06 06:01:26;;;;;;;131.15;82.07;;;;;;;;;;6262226;28;24423;-74
2024/02/06 06:04:27;;;;;;;130.27;81.77;;;;;;;;;;6262282;28;24419;-74
2024/02/06 06:07:38;;;;;;;131.33;82.60;;;;;;;;;;6266114;28;24418;-74
2024/02/06 06:10:41;;;;;;;134.23;84.07;;;;;;;;;;6265347;28;24420;-75
2024/02/06 06:13:42;;;;;;;133.18;83.47;;;;;;;;;;6266402;28;24676;-73
2024/02/06 06:16:44;;;;;;;143.90;90.25;;;;;;;;;;6264799;28;24415;-77
2024/02/06 06:19:46;;;;;;;138.20;86.80;;;;;;;;;;6261037;28;24434;-76
2024/02/06 06:22:48;;;;;;;136.38;85.85;;;;;;;;;;6263256;28;24426;-79
2024/02/06 06:25:51;;;;;;;133.88;85.32;;;;;;;;;;6264350;28;24601;-76
2024/02/06 06:28:54;;;;;;;134.30;84.80;;;;;;;;;;6262922;28;24412;-77
2024/02/06 06:31:55;;;;;;;139.65;87.55;;;;;;;;;;6265254;28;24653;-76
2024/02/06 06:34:57;;;;;;;140.55;88.35;;;;;;;;;;6261249;28;24426;-77
2024/02/06 06:37:58;;;;;;;133.75;85.80;;;;;;;;;;6264065;28;24422;-78
2024/02/06 06:41:01;;;;;;;137.02;88.70;;;;;;;;;;6262977;28;24428;-76
2024/02/06 06:44:03;;;;;;;133.68;86.32;;;;;;;;;;6262661;28;24817;-78
2024/02/06 06:47:06;;;;;;;141.90;89.03;;;;;;;;;;6264146;28;25065;-76
2024/02/06 06:50:08;;;;;;;137.77;86.00;;;;;;;;;;6263060;28;24863;-76
2024/02/06 06:53:10;;;;;;;137.52;86.43;;;;;;;;;;6261014;28;24996;-75
2024/02/06 06:56:26;;;;;;;130.15;83.18;;;;;;;;;;6262983;28;24848;-76
2024/02/06 06:59:30;;;;;;;128.55;81.72;;;;;;;;;;6263849;28;24885;-77
2024/02/06 07:02:33;;;;;;;129.00;82.63;;;;;;;;;;6262397;28;24840;-76
2024/02/06 07:05:35;;;;;;;127.05;82.00;;;;;;;;;;6267398;28;24633;-77
2024/02/06 07:08:38;;;;;;;124.13;81.53;;;;;;;;;;6264701;28;24437;-77
2024/02/06 07:11:40;;;;;;;133.30;84.82;;;;;;;;;;6260148;28;24424;-77
2024/02/06 07:14:43;;;;;;;127.85;81.97;;;;;;;;;;6264152;28;24481;-77
2024/02/06 07:17:45;;;;;;;129.50;84.03;;;;;;;;;;6265189;28;24513;-77
2024/02/06 07:20:47;;;;;;;131.83;84.00;;;;;;;;;;6259746;28;24617;-77
2024/02/06 07:23:48;;;;;;;129.10;83.63;;;;;;;;;;6260014;28;24527;-78
2024/02/06 07:26:51;;;;;;;132.65;83.40;;;;;;;;;;6262382;28;24428;-75
2024/02/06 07:29:54;;;;;;;128.82;82.95;;;;;;;;;;6247953;28;24408;-75
2024/02/06 07:32:56;;;;;;;127.60;82.22;;;;;;;;;;6262510;28;24428;-75
2024/02/06 07:35:57;;;;;;;129.77;81.68;;;;;;;;;;6259830;28;24459;-74
2024/02/06 07:38:59;;;;;;;122.97;78.40;;;;;;;;;;6260505;28;24435;-75
2024/02/06 07:42:01;;;;;;;123.63;79.15;;;;;;;;;;6262807;28;24469;-75
2024/02/06 07:45:05;;;;;;;125.25;81.28;;;;;;;;;;6263073;28;24449;-75
2024/02/06 07:48:07;;;;;;;120.18;77.97;;;;;;;;;;6263137;28;24604;-74
2024/02/06 07:51:09;;;;;;;118.47;76.43;;;;;;;;;;6264668;28;24428;-75
2024/02/06 07:54:10;;;;;;;124.25;78.32;;;;;;;;;;6268728;28;24451;-75
2024/02/06 07:57:12;;;;;;;120.90;77.37;;;;;;;;;;6266770;28;24470;-74
2024/02/06 08:00:17;;;;;;;121.53;78.15;;;;;;;;;;6264903;28;24839;-75
2024/02/06 08:03:18;;;;;;;118.05;76.30;;;;;;;;;;6267594;28;24428;-74
2024/02/06 08:06:20;;;;;;;122.35;77.80;;;;;;;;;;6269368;28;24517;-74
2024/02/06 08:09:23;;;;;;;121.97;76.60;;;;;;;;;;6266671;28;24430;-74
2024/02/06 08:12:27;;;;;;;123.47;79.38;;;;;;;;;;6265696;28;24506;-74
2024/02/06 08:15:30;;;;;;;123.63;79.80;;;;;;;;;;6264184;28;24510;-74
2024/02/06 08:18:31;;;;;;;117.18;76.53;;;;;;;;;;6267498;28;24839;-75
2024/02/06 08:21:33;;;;;;;118.50;77.53;;;;;;;;;;6264501;28;24682;-75
2024/02/06 08:24:34;;;;;;;124.35;81.80;;;;;;;;;;6266881;28;24411;-74
2024/02/06 08:27:36;;;;;;;122.07;79.88;;;;;;;;;;6264892;28;24423;-74
2024/02/06 08:30:39;;;;;;;121.72;80.30;;;;;;;;;;6264807;28;24455;-75
2024/02/06 08:33:44;;;;;;;129.73;84.35;;;;;;;;;;6267698;28;24467;-75
2024/02/06 08:36:46;;;;;;;121.60;79.97;;;;;;;;;;6266440;28;24819;-74
2024/02/06 08:39:47;;;;;;;116.03;76.30;;;;;;;;;;6265409;28;24427;-75
2024/02/06 08:42:49;;;;;;;120.75;79.85;;;;;;;;;;6264336;28;24879;-75
2024/02/06 08:45:55;;;;;;;119.38;77.90;;;;;;;;;;6265729;28;24461;-75
2024/02/06 08:48:56;;;;;;;123.07;80.60;;;;;;;;;;6266376;28;24550;-75
2024/02/06 08:51:58;;;;;;;125.77;81.30;;;;;;;;;;6265667;28;24415;-74
2024/02/06 08:54:59;;;;;;;120.15;77.88;;;;;;;;;;6268831;28;24828;-75
2024/02/06 08:58:01;;;;;;;127.80;82.57;;;;;;;;;;6263784;28;24510;-75
2024/02/06 09:01:04;;;;;;;121.80;80.33;;;;;;;;;;6268983;28;24453;-75
2024/02/06 09:04:06;;;;;;;125.43;79.75;;;;;;;;;;6267000;28;24493;-75
2024/02/06 09:07:08;;;;;;;126.85;82.03;;;;;;;;;;6264064;28;24430;-75
2024/02/06 09:10:09;;;;;;;119.88;78.20;;;;;;;;;;6266018;28;24880;-75
2024/02/06 09:13:11;;;;;;;124.93;82.25;;;;;;;;;;6265614;28;24620;-75
2024/02/06 09:16:16;;;;;;;119.83;77.90;;;;;;;;;;6266698;28;24439;-75
2024/02/06 09:19:17;;;;;;;117.63;78.13;;;;;;;;;;6264907;28;24878;-75
2024/02/06 09:22:19;;;;;;;119.73;78.83;;;;;;;;;;6264871;28;24459;-75
2024/02/06 09:25:20;;;;;;;118.65;78.85;;;;;;;;;;6264572;28;24411;-75
2024/02/06 09:28:22;;;;;;;127.57;85.15;;;;;;;;;;6263886;28;24668;-74
2024/02/06 09:31:25;;;;;;;127.97;86.05;;;;;;;;;;6264211;28;24824;-74
2024/02/06 09:34:27;;;;;;;131.27;86.05;;;;;;;;;;6264208;28;24468;-74
2024/02/06 09:37:29;;;;;;;116.78;80.30;;;;;;;;;;6264983;28;25040;-74
2024/02/06 09:40:32;;;;;;;121.53;80.97;;;;;;;;;;6264768;28;24435;-74
2024/02/06 09:43:33;;;;;;;124.60;82.50;;;;;;;;;;6262175;28;24812;-74
2024/02/06 09:46:36;;;;;;;116.20;77.45;;;;;;;;;;6264023;28;24419;-79
2024/02/06 09:49:38;;;;;;;116.32;77.53;;;;;;;;;;6261110;28;24426;-78
2024/02/06 09:52:41;;;;;;;119.22;80.72;;;;;;;;;;6261820;28;24420;-78
2024/02/06 09:55:45;;;;;;;126.03;81.30;;;;;;;;;;6264285;28;24423;-77
2024/02/06 09:58:46;;;;;;;120.00;79.03;;;;;;;;;;6265535;28;24843;-78
2024/02/06 10:01:50;;;;;;;112.05;72.47;;;;;;;;;;6266496;28;24423;-78
2024/02/06 10:04:53;;;;;;;110.00;71.70;;;;;;;;;;6263805;28;24912;-77
2024/02/06 10:07:56;;;;;;;96.63;65.78;;;;;;;;;;6266110;28;24419;-78
2024/02/06 10:10:58;;;;;;;97.38;64.68;;;;;;;;;;6261429;28;24792;-77
2024/02/06 10:13:59;;;;;;;101.03;65.03;;;;;;;;;;6266136;28;24429;-78
2024/02/06 10:17:03;;;;;;;104.22;69.78;;;;;;;;;;6264485;28;24599;-78
2024/02/06 10:20:08;;;;;;;98.80;65.80;;;;;;;;;;6266905;28;24980;-78
2024/02/06 10:23:13;;;;;;;96.30;64.05;;;;;;;;;;6262899;28;24435;-77
2024/02/06 10:26:18;;;;;;;110.25;74.47;;;;;;;;;;6261689;28;24668;-78
2024/02/06 10:29:20;;;;;;;117.17;79.23;;;;;;;;;;6263515;28;24885;-78
2024/02/06 10:32:23;;;;;;;113.93;77.45;;;;;;;;;;6265433;28;24428;-78
2024/02/06 10:35:31;;;;;;;110.07;75.60;;;;;;;;;;6263322;28;24503;-78
2024/02/06 10:38:33;;;;;;;108.30;73.63;;;;;;;;;;6263396;28;24495;-78
2024/02/06 10:41:34;;;;;;;103.22;71.32;;;;;;;;;;6261515;28;24496;-78
2024/02/06 10:44:36;;;;;;;94.45;64.93;;;;;;;;;;6264097;28;24820;-78
2024/02/06 10:47:39;;;;;;;88.55;60.35;;;;;;;;;;6263540;28;24419;-78
2024/02/06 10:50:42;;;;;;;80.03;55.07;;;;;;;;;;6261978;28;24503;-77
2024/02/06 10:53:44;;;;;;;72.17;50.23;;;;;;;;;;6260272;28;24470;-78
2024/02/06 10:56:49;;;;;;;64.78;44.20;;;;;;;;;;6261683;28;24446;-75
2024/02/06 10:59:53;;;;;;;56.17;39.05;;;;;;;;;;6262399;28;24477;-75
2024/02/06 11:02:57;;;;;;;55.35;38.90;;;;;;;;;;6264870;28;24499;-75
2024/02/06 11:06:05;;;;;;;56.90;38.45;;;;;;;;;;6264828;28;24847;-75
2024/02/06 11:09:11;;;;;;;58.22;39.75;;;;;;;;;;6245146;28;24438;-75
2024/02/06 11:12:14;;;;;;;57.47;41.60;;;;;;;;;;6260723;28;24490;-75
2024/02/06 11:15:18;;;;;;;62.38;43.97;;;;;;;;;;6262555;28;24438;-74
2024/02/06 11:18:22;;;;;;;95.10;62.30;;;;;;;;;;6251904;28;24439;-74
2024/02/06 11:21:25;;;;;;;107.45;70.15;;;;;;;;;;6267440;28;24459;-74
2024/02/06 11:24:27;;;;;;;252.80;138.65;;;;;;;;;;6267168;28;24840;-75
2024/02/06 11:27:29;;;;;;;145.80;89.07;;;;;;;;;;6270423;28;24422;-75
2024/02/06 11:30:31;;;;;;;99.85;64.03;;;;;;;;;;6272025;28;24423;-75
2024/02/06 11:33:37;;;;;;;127.80;76.85;;;;;;;;;;6271796;28;24423;-74
2024/02/06 11:36:39;;;;;;;119.20;74.13;;;;;;;;;;6268450;28;24518;-74
2024/02/06 11:39:40;;;;;;;82.25;53.95;;;;;;;;;;6268856;28;24420;-74
2024/02/06 11:42:43;;;;;;;62.22;42.60;;;;;;;;;;6266578;28;24423;-75
2024/02/06 11:45:45;;;;;;;58.65;41.22;;;;;;;;;;6267798;28;24598;-74
2024/02/06 11:48:49;;;;;;;66.77;44.90;;;;;;;;;;6269997;28;24885;-75
2024/02/06 11:51:53;;;;;;;69.93;46.23;;;;;;;;;;6266313;28;24519;-75
2024/02/06 11:54:54;;;;;;;71.38;47.28;;;;;;;;;;6263542;28;24524;-74
2024/02/06 11:57:57;;;;;;;70.93;47.08;;;;;;;;;;6224162;28;24860;-74
2024/02/06 12:01:02;;;;;;;69.65;45.78;;;;;;;;;;6267707;28;24431;-74
2024/02/06 12:04:05;;;;;;;73.25;46.55;;;;;;;;;;6265207;28;24439;-74
2024/02/06 12:07:07;;;;;;;70.07;46.10;;;;;;;;;;6263771;28;24535;-74
2024/02/06 12:10:09;;;;;;;70.70;47.30;;;;;;;;;;6264602;28;24427;-74
2024/02/06 12:13:11;;;;;;;69.88;46.33;;;;;;;;;;6267132;28;24518;-74
2024/02/06 12:16:13;;;;;;;70.57;46.88;;;;;;;;;;6265989;28;24541;-74
2024/02/06 12:19:17;;;;;;;69.10;45.88;;;;;;;;;;6265030;28;24438;-75
2024/02/06 12:22:19;;;;;;;72.22;48.03;;;;;;;;;;6263283;28;25159;-75
2024/02/06 12:25:21;;;;;;;73.60;48.28;;;;;;;;;;6267381;28;24503;-75
2024/02/06 12:28:22;;;;;;;78.75;52.05;;;;;;;;;;6269121;28;24418;-75
2024/02/06 12:31:24;;;;;;;76.30;51.10;;;;;;;;;;6267950;28;24572;-75
2024/02/06 12:34:27;;;;;;;77.10;49.67;;;;;;;;;;6269437;28;24815;-74
2024/02/06 12:37:31;;;;;;;62.38;42.00;;;;;;;;;;6268187;28;24418;-77
2024/02/06 12:40:33;;;;;;;60.50;41.47;;;;;;;;;;6263213;28;24408;-75
2024/02/06 12:43:35;;;;;;;60.28;39.83;;;;;;;;;;6267019;28;24816;-75
2024/02/06 12:46:36;;;;;;;71.57;46.73;;;;;;;;;;6264722;28;24420;-75
2024/02/06 12:49:40;;;;;;;71.68;45.78;;;;;;;;;;6266340;28;24542;-76
2024/02/06 12:52:41;;;;;;;71.55;45.03;;;;;;;;;;6265347;28;24480;-74
2024/02/06 12:55:43;;;;;;;60.15;40.65;;;;;;;;;;6262451;28;24431;-74
2024/02/06 12:58:46;;;;;;;56.17;37.47;;;;;;;;;;6265994;28;24563;-75
2024/02/06 13:01:48;;;;;;;54.13;36.50;;;;;;;;;;6266984;28;24448;-75
2024/02/06 13:04:51;;;;;;;59.10;39.57;;;;;;;;;;6264621;28;24424;-74
2024/02/06 13:08:03;;;;;;;57.85;39.03;;;;;;;;;;6266368;28;24428;-74
2024/02/06 13:11:10;;;;;;;54.17;35.53;;;;;;;;;;6264063;28;24465;-74
2024/02/06 13:14:13;;;;;;;48.35;32.78;;;;;;;;;;6267022;28;24432;-74
2024/02/06 13:17:22;;;;;;;45.73;30.77;;;;;;;;;;6265723;28;24426;-75
2024/02/06 13:20:25;;;;;;;50.73;32.37;;;;;;;;;;6253963;28;24497;-76
2024/02/06 13:23:27;;;;;;;44.65;31.27;;;;;;;;;;6249864;28;24412;-75
2024/02/06 13:26:28;;;;;;;46.45;30.88;;;;;;;;;;6253934;28;24506;-75
2024/02/06 13:29:34;;;;;;;40.90;28.10;;;;;;;;;;6249386;28;24499;-75
2024/02/06 13:32:36;;;;;;;42.92;28.92;;;;;;;;;;6266463;28;24808;-76
2024/02/06 13:35:39;;;;;;;45.50;30.48;;;;;;;;;;6265587;28;24432;-75
2024/02/06 13:38:40;;;;;;;41.70;28.77;;;;;;;;;;6264908;28;24427;-75
2024/02/06 13:41:43;;;;;;;44.47;29.35;;;;;;;;;;6267613;28;24438;-76
2024/02/06 13:44:45;;;;;;;42.25;29.73;;;;;;;;;;6264049;28;24506;-75
2024/02/06 13:47:46;;;;;;;45.75;30.15;;;;;;;;;;6266306;28;24420;-75
2024/02/06 13:50:50;;;;;;;46.38;29.92;;;;;;;;;;6267101;28;24521;-74
2024/02/06 13:53:51;;;;;;;43.65;28.83;;;;;;;;;;6263731;28;24427;-75
2024/02/06 13:56:55;;;;;;;41.78;28.20;;;;;;;;;;6262872;28;24809;-76
2024/02/06 13:59:56;;;;;;;40.93;28.33;;;;;;;;;;6264225;28;24450;-75
2024/02/06 14:02:58;;;;;;;39.05;27.25;;;;;;;;;;6261903;28;24486;-75
2024/02/06 14:06:04;;;;;;;41.40;28.25;;;;;;;;;;6264849;28;24674;-75
2024/02/06 14:09:05;;;;;;;45.80;30.27;;;;;;;;;;6263046;28;24530;-75
2024/02/06 14:12:08;;;;;;;41.75;28.42;;;;;;;;;;6264110;28;24419;-75
2024/02/06 14:15:09;;;;;;;43.58;28.92;;;;;;;;;;6261408;28;24738;-74
2024/02/06 14:18:11;;;;;;;45.20;29.65;;;;;;;;;;6265821;28;24458;-74
2024/02/06 14:21:14;;;;;;;45.45;29.67;;;;;;;;;;6264481;28;24883;-74
2024/02/06 14:24:16;;;;;;;43.45;29.40;;;;;;;;;;6264763;28;24423;-74
2024/02/06 14:27:20;;;;;;;44.37;29.10;;;;;;;;;;6262351;28;24434;-74
2024/02/06 14:30:21;;;;;;;43.25;28.42;;;;;;;;;;6249577;28;24519;-73
2024/02/06 14:33:23;;;;;;;42.58;27.35;;;;;;;;;;6261105;28;24670;-75
2024/02/06 14:36:26;;;;;;;39.75;26.90;;;;;;;;;;6262543;28;24455;-73
2024/02/06 14:39:28;;;;;;;43.00;27.17;;;;;;;;;;6264236;28;25108;-75
2024/02/06 14:42:30;;;;;;;43.70;27.10;;;;;;;;;;6262698;28;24852;-75
2024/02/06 14:45:32;;;;;;;42.72;27.80;;;;;;;;;;6266332;28;24460;-75
2024/02/06 14:48:34;;;;;;;45.50;28.20;;;;;;;;;;6261444;28;24447;-76
2024/02/06 14:51:37;;;;;;;44.78;28.30;;;;;;;;;;6265158;28;24415;-75
2024/02/06 14:54:39;;;;;;;88.33;52.70;;;;;;;;;;6268001;28;24456;-74
2024/02/06 14:57:41;;;;;;;100.78;58.10;;;;;;;;;;6246102;28;24695;-74
2024/02/06 15:00:42;;;;;;;93.47;51.33;;;;;;;;;;6260132;28;24817;-75
2024/02/06 15:03:44;;;;;;;176.52;101.60;;;;;;;;;;6267186;28;24426;-74
2024/02/06 15:06:48;;;;;;;105.47;61.45;;;;;;;;;;6263172;28;24437;-74
2024/02/06 15:09:55;;;;;;;84.85;49.80;;;;;;;;;;6261999;28;24762;-74
2024/02/06 15:12:58;;;;;;;135.32;76.07;;;;;;;;;;6239181;28;24434;-75
2024/02/06 15:16:00;;;;;;;80.22;48.30;;;;;;;;;;6260775;28;24442;-75
2024/02/06 15:19:02;;;;;;;54.75;33.40;;;;;;;;;;6260797;28;24494;-75
2024/02/06 15:22:05;;;;;;;43.80;27.98;;;;;;;;;;6261330;28;24439;-74
2024/02/06 15:25:08;;;;;;;42.47;26.57;;;;;;;;;;6263866;28;24505;-77
2024/02/06 15:28:10;;;;;;;41.92;26.63;;;;;;;;;;6260181;28;24524;-75
2024/02/06 15:31:11;;;;;;;39.27;25.57;;;;;;;;;;6257397;28;24446;-75
2024/02/06 15:34:13;;;;;;;41.08;24.80;;;;;;;;;;6261550;28;24451;-75
2024/02/06 15:37:17;;;;;;;36.85;24.80;;;;;;;;;;6262263;28;24431;-75
2024/02/06 15:40:19;;;;;;;39.70;25.60;;;;;;;;;;6259289;28;24483;-74
2024/02/06 15:43:20;;;;;;;44.50;27.08;;;;;;;;;;6259273;28;24432;-75
2024/02/06 15:46:22;;;;;;;43.38;27.80;;;;;;;;;;6262342;28;24418;-75
2024/02/06 15:49:24;;;;;;;45.75;29.17;;;;;;;;;;6258768;28;24439;-75
2024/02/06 15:52:27;;;;;;;46.08;29.23;;;;;;;;;;6262301;28;24415;-74
2024/02/06 15:55:29;;;;;;;44.63;29.50;;;;;;;;;;6259973;28;24442;-75
2024/02/06 15:58:30;;;;;;;50.63;31.38;;;;;;;;;;6261499;28;24502;-75
2024/02/06 16:01:32;;;;;;;48.77;31.37;;;;;;;;;;6260314;28;24661;-75
2024/02/06 16:04:36;;;;;;;43.90;29.33;;;;;;;;;;6261213;28;24721;-79
2024/02/06 16:07:40;;;;;;;46.83;29.27;;;;;;;;;;6259600;28;24435;-75
2024/02/06 16:10:42;;;;;;;42.08;28.20;;;;;;;;;;6267181;28;24891;-76
2024/02/06 16:13:43;;;;;;;43.10;27.98;;;;;;;;;;6264657;28;24400;-76
2024/02/06 16:16:45;;;;;;;43.05;29.67;;;;;;;;;;6264112;28;25874;-74
2024/02/06 16:19:47;;;;;;;42.60;28.43;;;;;;;;;;6266487;28;24414;-76
2024/02/06 16:22:50;;;;;;;45.22;27.92;;;;;;;;;;6264518;28;24453;-76
2024/02/06 16:25:51;;;;;;;41.28;27.65;;;;;;;;;;6267922;28;24785;-74
2024/02/06 16:28:53;;;;;;;40.53;26.48;;;;;;;;;;6265696;28;24854;-75
2024/02/06 16:31:55;;;;;;;38.53;25.00;;;;;;;;;;6265908;28;24804;-75
2024/02/06 16:34:57;;;;;;;43.57;26.70;;;;;;;;;;6264878;28;24628;-74
2024/02/06 16:38:02;;;;;;;44.17;27.30;;;;;;;;;;6266066;28;24448;-76
2024/02/06 16:41:03;;;;;;;44.38;26.23;;;;;;;;;;6268105;28;24537;-75
2024/02/06 16:44:05;;;;;;;188.27;110.18;;;;;;;;;;6267660;28;24426;-76
2024/02/06 16:47:07;;;;;;;224.02;126.80;;;;;;;;;;6266052;28;24423;-75
2024/02/06 16:50:14;;;;;;;144.40;80.65;;;;;;;;;;6268638;28;24420;-75
2024/02/06 16:53:18;;;;;;;122.18;68.35;;;;;;;;;;6263657;28;24437;-76
2024/02/06 16:56:19;;;;;;;72.10;41.28;;;;;;;;;;6264912;28;24419;-75
2024/02/06 16:59:21;;;;;;;47.35;30.20;;;;;;;;;;6267849;28;24422;-76
2024/02/06 17:02:24;;;;;;;42.17;26.33;;;;;;;;;;6266368;28;24430;-76
2024/02/06 17:05:28;;;;;;;37.72;23.90;;;;;;;;;;6264674;28;24427;-76
2024/02/06 17:08:34;;;;;;;35.70;23.52;;;;;;;;;;6263680;28;24428;-75
2024/02/06 17:11:36;;;;;;;42.25;25.48;;;;;;;;;;6266015;28;24423;-76
2024/02/06 17:14:38;;;;;;;40.57;25.10;;;;;;;;;;6263088;28;24441;-77
2024/02/06 17:17:40;;;;;;;38.40;24.05;;;;;;;;;;6260370;28;24661;-76
2024/02/06 17:20:41;;;;;;;35.97;23.70;;;;;;;;;;6258879;28;24415;-76
2024/02/06 17:23:45;;;;;;;36.90;22.73;;;;;;;;;;6264987;28;24614;-77
2024/02/06 17:26:47;;;;;;;35.13;23.07;;;;;;;;;;6264828;28;24421;-76
2024/02/06 17:29:49;;;;;;;36.60;23.58;;;;;;;;;;6260935;28;24531;-76
2024/02/06 17:32:52;;;;;;;35.47;23.00;;;;;;;;;;6265060;28;24454;-76